• Join FlightAware (Why Join?)
  • Login
  • US Flag 
06:21AM EDT


 

Airport Tracker/Info


-or-


 

Live Flight TrackerFlight Track Log ✈ AWE1940 ✈ 19-Jun-2013 ✈ KIAH - KCLT

Flight Track Log - Related Links

Times and Time Zones

All times are in EDT time to prevent confusion due to time zone crossing. See the AWE1940 flight status page for this flight to view local times or setup timezone preferences in your user account.

Time Position Orientation Groundspeed Altitude Reporting Facility
EDT Latitude Longitude Course Direction KTS MPH feet Rate Location/Type
07:07PM 29.9547 -95.3372 90° East 195 224 1,100  Level Houston Center
07:08PM 29.9367 -95.3008 120° Southeast 210 242 2,100 1,740 Climbing Houston Center
07:09PM 29.9172 -95.2522 115° Southeast 223 257 3,800 1,020 Climbing Houston Center
07:10PM 29.9147 -95.1675 92° East 265 305 4,000 720 Climbing Houston Center
07:11PM 29.9133 -95.0481 91° East 281 323 5,500 1,860 Climbing Houston Center
07:12PM 29.9833 -94.6756 90° East  Level FlightAware Approximate
07:12PM 29.8964 -94.9714 104° East 281 323 7,900  Level Houston Center
07:13PM 29.8750 -94.8778 105° East 296 341 10,500 1,980 Climbing Houston Center
07:14PM 29.8492 -94.7711 106° East 345 397 12,000 1,920 Climbing Houston Center
07:15PM 29.8272 -94.6528 102° East 376 433 14,500 2,040 Climbing Houston Center
07:16PM 29.8039 -94.5325 103° East 383 441 16,200 1,740 Climbing Houston Center
07:17PM 29.7772 -94.4039 103° East 408 470 18,100 1,920 Climbing Houston Center
07:18PM 29.7519 -94.2719 102° East 420 483 20,200 1,860 Climbing Houston Center
07:19PM 29.7311 -94.1242 99° East 424 488 22,000 1,680 Climbing Houston Center
07:20PM 29.7761 -93.9964 68° East 429 494 23,700 1,200 Climbing Houston Center
07:21PM 29.8303 -93.8681 64° Northeast 444 511 24,500 1,020 Climbing Houston Center
07:22PM 29.8969 -93.7058 65° Northeast 466 536 25,900 1,500 Climbing Houston Center
07:23PM 29.9522 -93.5703 65° Northeast 471 542 27,600 1,500 Climbing Houston Center
07:24PM 30.0061 -93.4372 65° Northeast 466 536 29,000 1,200 Climbing Houston Center
07:25PM 30.0611 -93.3044 64° Northeast 466 536 30,200 1,140 Climbing Houston Center
07:26PM 30.1150 -93.1719 65° Northeast 464 534 31,400 1,020 Climbing Houston Center
07:27PM 30.1889 -93.0183 61° Northeast 463 533 32,400 720 Climbing Houston Center
07:28PM 30.2575 -92.8950 57° Northeast 461 531 33,000 240 Climbing Houston Center
07:29PM 30.3253 -92.7694 58° Northeast 463 533 33,000  Level Houston Center
07:30PM 30.3939 -92.6436 58° Northeast 464 534 33,000  Level Houston Center
07:31PM 30.4600 -92.5178 59° Northeast 462 532 33,000  Level Houston Center
07:32PM 30.5303 -92.3889 58° Northeast 458 527 33,000  Level Houston Center
07:33PM 30.6103 -92.2403 58° Northeast 457 526 33,000  Level Houston Center
07:34PM 30.6775 -92.1147 58° Northeast 461 531 33,000  Level Houston Center
07:36PM 30.7458 -91.9889 58° Northeast 463 533 33,000  Level Houston Center
07:37PM 30.8128 -91.8636 58° Northeast 461 531 33,000  Level Houston Center
07:38PM 30.8811 -91.7367 58° Northeast 465 535 33,000  Level Houston Center
07:39PM 30.9614 -91.5847 58° Northeast 462 532 33,000  Level Houston Center
07:40PM 31.0283 -91.4586 58° Northeast 460 529 33,000  Level Houston Center
07:41PM 31.0861 -91.3467 59° Northeast 461 531 33,000  Level Houston Center
07:42PM 31.1667 -91.1936 58° Northeast 460 529 33,000  Level Houston Center
07:43PM 31.2333 -91.0661 59° Northeast 461 531 33,000  Level Houston Center
07:44PM 31.3003 -90.9372 59° Northeast 462 532 33,000  Level Houston Center
07:45PM 31.3667 -90.8100 59° Northeast 460 529 33,000  Level Houston Center
07:46PM 31.4317 -90.6822 59° Northeast 457 526 33,000  Level Houston Center
07:47PM 31.4975 -90.5564 58° Northeast 454 522 33,000  Level Houston Center
07:48PM 31.5619 -90.4281 59° Northeast 455 524 33,000  Level Houston Center
07:49PM 31.6406 -90.2761 59° Northeast 454 522 33,000  Level Houston Center
07:50PM 31.7056 -90.1497 59° Northeast 452 520 33,000  Level Houston Center
07:51PM 31.7697 -90.0236 59° Northeast 450 518 33,000  Level Houston Center
07:52PM 31.8336 -89.8956 60° Northeast 452 520 33,000  Level Houston Center
07:53PM 31.8939 -89.7775 59° Northeast 450 518 33,000  Level Memphis Center
07:54PM 31.9558 -89.6522 60° Northeast 450 518 33,000  Level Memphis Center
07:55PM 32.0219 -89.5219 59° Northeast 455 524 33,000  Level Memphis Center
07:56PM 32.0878 -89.3936 59° Northeast 455 524 33,000  Level Memphis Center
07:57PM 32.1514 -89.2656 60° Northeast 450 518 33,000  Level Memphis Center
07:58PM 32.2089 -89.1469 60° Northeast 450 518 33,000  Level Memphis Center
07:59PM 32.2722 -89.0208 59° Northeast 450 518 33,000  Level Memphis Center
08:00PM 32.3375 -88.8869 60° Northeast 450 518 33,000  Level Memphis Center
08:01PM 32.4028 -88.7581 59° Northeast 450 518 33,000  Level Memphis Center
08:02PM 32.4636 -88.6264 61° Northeast 450 518 33,000  Level Memphis Center
08:03PM 32.5264 -88.4944 61° Northeast 450 518 33,000  Level Memphis Center
08:05PM 32.6367 -88.2617 61° Northeast 449 517 33,000  Level Atlanta Center
08:06PM 32.6975 -88.1264 62° Northeast 449 517 33,000  Level Atlanta Center
08:07PM 32.7475 -88.0028 64° Northeast 449 517 33,000  Level Atlanta Center
08:08PM 32.8167 -87.8575 60° Northeast 454 522 33,000  Level Atlanta Center
08:09PM 32.8792 -87.7242 61° Northeast 454 522 33,000  Level Atlanta Center
08:10PM 32.9394 -87.5931 61° Northeast 449 517 33,000  Level Atlanta Center
08:11PM 32.9975 -87.4592 63° Northeast 443 510 33,000  Level Atlanta Center
08:12PM 33.0642 -87.3106 62° Northeast 443 510 33,000  Level Atlanta Center
08:13PM 33.1178 -87.1761 65° Northeast 448 516 33,000  Level Atlanta Center
08:14PM 33.1503 -87.0433 74° East 448 516 33,000  Level Atlanta Center
08:15PM 33.1789 -86.8906 77° East 453 521 33,000  Level Atlanta Center
08:16PM 33.2075 -86.7375 77° East 465 535 33,000  Level Atlanta Center
08:17PM 33.2378 -86.5894 76° East 465 535 33,000  Level Atlanta Center
08:18PM 33.2658 -86.4389 77° East 465 535 33,000  Level Atlanta Center
08:19PM 33.2958 -86.2856 77° East 465 535 33,000  Level Atlanta Center
08:20PM 33.3236 -86.1297 78° East 470 541 33,000  Level Atlanta Center
08:21PM 33.3531 -85.9836 76° East 463 533 33,000  Level Atlanta Center
08:22PM 33.3806 -85.8275 78° East 463 533 33,000  Level Atlanta Center
08:23PM 33.4119 -85.6764 76° East 463 533 33,000  Level Atlanta Center
08:24PM 33.4389 -85.5200 78° East 468 539 33,000  Level Atlanta Center
08:25PM 33.4656 -85.3661 78° East 468 539 33,000  Level Atlanta Center
08:26PM 33.4922 -85.2094 78° East 473 544 33,000  Level Atlanta Center
08:27PM 33.5208 -85.0531 78° East 473 544 33,000  Level Atlanta Center
08:28PM 33.5492 -84.8961 78° East 473 544 33,000  Level Atlanta Center
08:29PM 33.5753 -84.7269 79° East 468 539 33,000  Level Atlanta Center
08:30PM 33.6053 -84.5675 77° East 474 545 33,000  Level Atlanta Center
08:31PM 33.6308 -84.4131 79° East 474 545 33,000  Level Atlanta Center
08:32PM 33.6708 -84.2658 72° East 467 537 33,000  Level Atlanta Center
08:33PM 33.7169 -84.1161 70° East 469 540 33,000  Level Atlanta Center
08:34PM 33.7586 -83.9639 72° East 474 545 33,000  Level Atlanta Center
08:35PM 33.8025 -83.8089 71° East 474 545 33,000  Level Atlanta Center
08:36PM 33.8436 -83.6586 72° East 474 545 33,000  Level Atlanta Center
08:37PM 33.8869 -83.5033 71° East 474 545 33,000  Level Atlanta Center
08:38PM 33.9219 -83.3803 71° East 484 557 33,000 -780 Level Atlanta Center
08:39PM 33.9708 -83.1997 72° East 478 550 31,500 -1,020 Descending Atlanta Center
08:40PM 34.0094 -83.0564 72° East 458 527 31,000 -660 Descending Atlanta Center
08:41PM 34.0478 -82.9081 73° East 452 520 30,200 -960 Descending Atlanta Center
08:42PM 34.0611 -82.7625 84° East 447 514 29,100 -900 Descending Atlanta Center
08:43PM 34.0700 -82.6194 86° East 441 507 28,400 -780 Descending Atlanta Center
08:44PM 34.1058 -82.4808 73° East 435 501 27,600 -960 Descending Atlanta Center
08:45PM 34.1606 -82.3592 61° Northeast 423 487 26,500 -960 Descending Atlanta Center
08:46PM 34.2150 -82.2325 63° Northeast 417 480 25,700 -780 Descending Atlanta Center
08:47PM 34.2883 -82.1028 56° Northeast 437 503 25,000 -1,800 Descending Atlanta Center
08:48PM 34.3822 -81.9850 46° Northeast 461 531 22,200 -2,220 Descending Atlanta Center
08:49PM 34.4681 -81.8769 46° Northeast 461 531 20,600 -1,440 Descending Atlanta Center
08:50PM 34.5356 -81.7919 46° Northeast 414 476 19,400 -1,200 Descending Atlanta Center
08:51PM 34.6008 -81.7119 45° Northeast 358 412 18,300 -1,080 Descending Atlanta Center
08:52PM 34.6600 -81.6397 45° Northeast 329 379 17,300 -1,740 Descending Atlanta Center
08:53PM 34.7372 -81.5389 47° Northeast 340 391 14,600 -1,980 Descending Atlanta Center
08:54PM 34.7861 -81.4792 45° Northeast 323 372 13,400 -1,740 Descending Atlanta Center
08:55PM 34.8428 -81.4017 48° Northeast 304 350 11,400 -1,740 Descending Atlanta Center
08:56PM 34.8997 -81.3339 44° Northeast 293 337 10,000 -720 Descending Atlanta Center
08:57PM 34.9525 -81.2614 48° Northeast 280 322 10,000  Level Atlanta Center
08:58PM 35.0375 -81.1544 46° Northeast 306 352 10,000  Level Atlanta Center
08:59PM 35.0678 -81.1128 48° Northeast 286 329 10,000  Level Atlanta Center
09:00PM 35.1439 -81.0619 29° Northeast 282 325 10,000 -300 Level Atlanta Center
09:01PM 35.2253 -81.0667 357° North 273 314 9,400 -1,440 Descending Atlanta Center
09:02PM 35.2900 -80.9803 47° Northeast 260 299 6,800 -2,160 Descending Atlanta Center
09:03PM 35.3364 -80.9125 50° Northeast 261 300 4,500 -2,340 Descending Atlanta Center